createdAt,value
2017-06-11T00:01:58.885Z,21.07
2017-06-11T00:04:23.583Z,21.11
2017-06-11T00:06:47.667Z,21.11
2017-06-11T00:09:03.355Z,21.05
2017-06-11T00:11:19.039Z,21.22
2017-06-11T00:13:43.117Z,21.13
2017-06-11T00:15:45.022Z,21.17
2017-06-11T00:18:09.159Z,21.17
2017-06-11T00:20:33.244Z,20.95
2017-06-11T00:22:57.327Z,20.85
2017-06-11T00:25:12.906Z,20.93
2017-06-11T00:27:28.601Z,21.04
2017-06-11T00:29:52.678Z,20.82
2017-06-11T00:32:16.758Z,20.89
2017-06-11T00:34:40.841Z,20.83
2017-06-11T00:37:05.023Z,20.77
2017-06-11T00:39:29.095Z,21.01
2017-06-11T00:41:53.189Z,20.98
2017-06-11T00:44:17.269Z,21.07
2017-06-11T00:46:41.354Z,20.78
2017-06-11T00:49:05.434Z,20.8
2017-06-11T00:51:29.517Z,20.64
2017-06-11T00:53:53.597Z,20.67
2017-06-11T00:56:09.282Z,20.58
2017-06-11T00:58:16.469Z,20.77
2017-06-11T01:00:40.558Z,20.68
2017-06-11T01:03:04.634Z,20.66
2017-06-11T01:05:28.719Z,20.59
2017-06-11T01:07:52.800Z,20.74
2017-06-11T01:10:16.875Z,20.53
2017-06-11T01:12:40.964Z,20.68
2017-06-11T01:14:56.540Z,20.53
2017-06-11T01:17:20.625Z,20.77
2017-06-11T01:19:44.712Z,20.64
2017-06-11T01:22:08.787Z,20.5
2017-06-11T01:24:32.872Z,20.77
2017-06-11T01:26:56.949Z,20.8
2017-06-11T01:29:21.031Z,20.75
2017-06-11T01:31:45.109Z,20.7
2017-06-11T01:33:52.303Z,20.56
2017-06-11T01:36:07.885Z,20.53
2017-06-11T01:38:23.467Z,20.56
2017-06-11T01:40:47.552Z,20.18
2017-06-11T01:42:54.736Z,20.08
2017-06-11T01:45:18.815Z,20.18
2017-06-11T01:47:34.400Z,20.17
2017-06-11T01:49:58.478Z,20.14
2017-06-11T01:52:08.380Z,19.9
2017-06-11T01:54:24.013Z,19.97
2017-06-11T01:56:47.998Z,19.57
2017-06-11T01:59:11.975Z,19.75
2017-06-11T02:01:27.552Z,19.6
2017-06-11T02:03:34.741Z,19.78
2017-06-11T02:05:58.615Z,19.82
2017-06-11T02:08:22.596Z,19.89
2017-06-11T02:10:46.570Z,19.84
2017-06-11T02:14:12.875Z,19.87
2017-06-11T02:16:36.899Z,19.9
2017-06-11T02:19:00.880Z,19.74
2017-06-11T02:21:24.858Z,19.72
2017-06-11T02:23:40.441Z,19.75
2017-06-11T02:26:04.419Z,19.6
2017-06-11T02:28:28.400Z,19.7
2017-06-11T02:30:52.379Z,19.63
2017-06-11T02:33:07.964Z,19.48
2017-06-11T02:35:31.944Z,19.44
2017-06-11T02:37:55.921Z,19.48
2017-06-11T02:39:57.259Z,19.75
2017-06-11T02:42:21.248Z,19.75
2017-06-11T02:44:28.430Z,19.62
2017-06-11T02:46:52.414Z,19.66
2017-06-11T02:49:16.389Z,19.78
2017-06-11T02:51:40.371Z,19.74
2017-06-11T02:54:04.352Z,19.84
2017-06-11T02:56:28.334Z,19.78
2017-06-11T02:58:30.172Z,19.78
2017-06-11T03:00:51.711Z,19.89
2017-06-11T03:03:15.695Z,19.78
2017-06-11T03:05:39.675Z,19.9
2017-06-11T03:08:03.651Z,19.77
2017-06-11T03:10:27.635Z,19.78
2017-06-11T03:12:51.612Z,19.67
2017-06-11T03:14:58.697Z,19.74
2017-06-11T03:17:14.277Z,19.71
2017-06-11T03:19:29.758Z,19.7
2017-06-11T03:21:45.237Z,19.72
2017-06-11T03:24:09.216Z,19.77
2017-06-11T03:26:16.298Z,19.75
2017-06-11T03:28:31.776Z,19.82
2017-06-11T03:30:55.757Z,19.84
2017-06-11T03:33:19.743Z,19.85
2017-06-11T03:35:35.221Z,19.77
2017-06-11T03:37:59.200Z,19.72
2017-06-11T03:40:01.021Z,19.92
2017-06-11T03:42:25.040Z,19.74
2017-06-11T03:44:48.914Z,19.78
2017-06-11T03:47:12.898Z,19.82
2017-06-11T03:49:28.481Z,20
2017-06-11T03:51:44.060Z,19.74
2017-06-11T03:54:08.040Z,19.9
2017-06-11T03:56:32.017Z,20.15
2017-06-11T03:58:47.602Z,19.75
2017-06-11T04:00:54.685Z,19.77
2017-06-11T04:03:18.663Z,19.84
2017-06-11T04:05:34.145Z,19.71
2017-06-11T04:07:58.126Z,19.99
2017-06-11T04:10:22.104Z,20.18
2017-06-11T04:12:46.081Z,20.27
2017-06-11T04:14:47.915Z,20.53
2017-06-11T04:17:11.868Z,20.75
2017-06-11T04:19:35.829Z,21.26
2017-06-11T04:21:59.779Z,24.71
2017-06-11T04:24:23.965Z,26.91
2017-06-11T04:26:48.248Z,29.5
2017-06-11T04:29:04.242Z,30.38
2017-06-11T04:31:28.838Z,33.05
2017-06-11T04:33:53.635Z,34.22
2017-06-11T04:36:18.641Z,35.91
2017-06-11T04:38:43.849Z,37.44
2017-06-11T04:41:00.665Z,38.63
2017-06-11T04:43:26.181Z,39.12
2017-06-11T04:45:51.790Z,40.05
2017-06-11T04:48:00.514Z,40.8
2017-06-11T04:50:26.335Z,42.12
2017-06-11T04:52:52.265Z,41.96
2017-06-11T04:55:09.789Z,41.68
2017-06-11T04:57:27.316Z,43.02
2017-06-11T04:59:53.463Z,44.11
2017-06-11T05:02:19.681Z,45.1
2017-06-11T05:04:46.016Z,44.64
2017-06-11T05:06:48.003Z,46.4
2017-06-11T05:09:05.918Z,47.69
2017-06-11T05:11:32.454Z,48.8
2017-06-11T05:13:58.994Z,48.67
2017-06-11T05:16:08.439Z,48.76
2017-06-11T05:18:19.740Z,48.14
2017-06-11T05:20:37.958Z,49.17
2017-06-11T05:23:04.806Z,49.31
2017-06-11T05:25:31.652Z,52.36
2017-06-11T05:27:41.399Z,50.47
2017-06-11T05:30:08.448Z,50.33
2017-06-11T05:32:02.438Z,52.29
2017-06-11T05:34:29.683Z,52.67
2017-06-11T05:36:56.938Z,52.96
2017-06-11T05:39:15.595Z,53.63
2017-06-11T05:41:42.947Z,54.01
2017-06-11T05:44:10.305Z,54.32
2017-06-11T05:46:37.772Z,54.22
2017-06-11T05:48:56.631Z,54.09
2017-06-11T05:51:24.196Z,54.47
2017-06-11T05:53:43.157Z,55.84
2017-06-11T05:56:10.721Z,55.81
2017-06-11T05:58:38.384Z,54.83
2017-06-11T06:00:57.450Z,56.4
2017-06-11T06:03:25.221Z,58.53
2017-06-11T06:05:52.988Z,58.27
2017-06-11T06:08:20.856Z,59.72
2017-06-11T06:10:48.727Z,58.18
2017-06-11T06:13:16.705Z,57.22
2017-06-11T06:15:44.675Z,58.32
2017-06-11T06:18:12.750Z,56.9
2017-06-11T06:20:40.830Z,57.83
2017-06-11T06:23:08.903Z,60.22
2017-06-11T06:25:36.977Z,61.28
2017-06-11T06:28:05.086Z,60.7
2017-06-11T06:30:33.332Z,58.4
2017-06-11T06:33:01.615Z,48.25
2017-06-11T06:35:29.895Z,48.13
2017-06-11T06:37:58.179Z,46.84
2017-06-11T06:40:09.865Z,47.07
2017-06-11T06:42:38.154Z,46.56
2017-06-11T06:44:58.547Z,46.72
2017-06-11T06:47:09.213Z,43.8
2017-06-11T06:49:36.985Z,45.93
2017-06-11T06:52:04.641Z,43.56
2017-06-11T06:54:32.004Z,44.8
2017-06-11T06:56:59.159Z,43.28
2017-06-11T06:59:17.607Z,41.17
2017-06-11T07:01:18.649Z,39.52
2017-06-11T07:03:29.866Z,39.95
2017-06-11T07:05:56.469Z,39.85
2017-06-11T07:08:14.409Z,41.8
2017-06-11T07:10:40.850Z,44.52
2017-06-11T07:13:07.182Z,44.6
2017-06-11T07:15:33.514Z,44.07
2017-06-11T07:17:59.853Z,45.02
2017-06-11T07:20:26.083Z,46
2017-06-11T07:22:52.314Z,44.8
2017-06-11T07:25:18.547Z,45.2
2017-06-11T07:27:36.284Z,45.9
2017-06-11T07:30:02.613Z,44.57
2017-06-11T07:32:28.951Z,43.65
2017-06-11T07:34:46.681Z,43.88
2017-06-11T07:37:12.917Z,43.18
2017-06-11T07:39:30.650Z,42.03
2017-06-11T07:41:56.882Z,41.71
2017-06-11T07:44:23.112Z,42.43
2017-06-11T07:46:49.283Z,42.29
2017-06-11T07:49:15.473Z,39.75
2017-06-11T07:51:41.707Z,41.46
2017-06-11T07:54:07.940Z,42.18
2017-06-11T07:56:25.673Z,42.62
2017-06-11T07:58:51.905Z,42.25
2017-06-11T08:01:09.635Z,42.87
2017-06-11T08:03:35.973Z,42
2017-06-11T08:06:02.307Z,41.8
2017-06-11T08:08:20.150Z,43.11
2017-06-11T08:10:46.580Z,43.24
2017-06-11T08:12:57.226Z,43.16
2017-06-11T08:15:23.684Z,40.7
2017-06-11T08:17:17.512Z,41.91
2017-06-11T08:19:44.919Z,41.24
2017-06-11T08:22:11.354Z,43.95
2017-06-11T08:24:29.187Z,44.32
2017-06-11T08:26:55.621Z,45.14
2017-06-11T08:29:22.061Z,44.76
2017-06-11T08:31:48.478Z,41.83
2017-06-11T08:34:14.934Z,41.03
2017-06-11T08:36:41.386Z,43.11
2017-06-11T08:38:59.891Z,45.61
2017-06-11T08:41:26.464Z,44.14
2017-06-11T08:43:52.805Z,41.08
2017-06-11T08:46:19.137Z,42.74
2017-06-11T08:48:45.369Z,44.03
2017-06-11T08:51:11.705Z,41.76
2017-06-11T08:53:29.435Z,43.76
2017-06-11T08:55:55.782Z,45.4
2017-06-11T08:58:22.104Z,43.11
2017-06-11T09:00:48.443Z,44.19
2017-06-11T09:03:14.776Z,45.89
2017-06-11T09:05:41.112Z,46.93
2017-06-11T09:07:58.946Z,47.34
2017-06-11T09:10:16.788Z,44.95
2017-06-11T09:12:43.217Z,45.86
2017-06-11T09:15:09.655Z,42.28
2017-06-11T09:17:36.090Z,42.1
2017-06-11T09:19:53.931Z,42.97
2017-06-11T09:22:20.270Z,44.48
2017-06-11T09:24:22.681Z,44.82
2017-06-11T09:26:40.570Z,45.59
2017-06-11T09:29:06.907Z,44.84
2017-06-11T09:31:33.364Z,45.36
2017-06-11T09:33:59.684Z,45.45
2017-06-11T09:36:26.120Z,44.95
2017-06-11T09:38:52.453Z,45.96
2017-06-11T09:41:18.787Z,44.48
2017-06-11T09:43:45.123Z,43.18
2017-06-11T09:45:54.255Z,43.11
2017-06-11T09:48:20.482Z,44.45
2017-06-11T09:50:38.120Z,44.59
2017-06-11T09:53:04.353Z,44.29
2017-06-11T09:55:15.400Z,43.12
2017-06-11T09:57:24.454Z,43
2017-06-11T09:59:42.086Z,41.36
2017-06-11T10:02:08.216Z,41.37
2017-06-11T10:04:34.345Z,41.41
2017-06-11T10:07:00.471Z,41.48
2017-06-11T10:09:18.007Z,41.71
2017-06-11T10:11:44.032Z,41.24
2017-06-11T10:14:01.572Z,39.41
2017-06-11T10:16:27.591Z,39.34
2017-06-11T10:18:45.013Z,40.07
2017-06-11T10:21:02.438Z,39.1
2017-06-11T10:23:28.363Z,39.6
2017-06-11T10:25:37.187Z,38.34
2017-06-11T10:28:03.019Z,37.8
2017-06-11T10:30:28.835Z,37.8
2017-06-11T10:32:54.655Z,38.35
2017-06-11T10:35:20.493Z,37.44
2017-06-11T10:37:46.299Z,37.57
2017-06-11T10:39:55.022Z,37.33
2017-06-11T10:42:20.744Z,37.29
2017-06-11T10:44:37.962Z,37.66
2017-06-11T10:47:03.685Z,37.16
2017-06-11T10:49:29.406Z,37.29
2017-06-11T10:51:46.523Z,37.4
2017-06-11T10:54:12.243Z,37.58
2017-06-11T10:56:37.959Z,36.39
2017-06-11T10:59:03.583Z,36.38
2017-06-11T11:01:29.202Z,36.53
2017-06-11T11:03:54.819Z,35.71
2017-06-11T11:06:20.437Z,36.25
2017-06-11T11:08:46.059Z,36.31
2017-06-11T11:10:48.347Z,36.53
2017-06-11T11:13:13.947Z,36.16
2017-06-11T11:15:13.961Z,35.97
2017-06-11T11:17:39.479Z,35.61
2017-06-11T11:19:47.989Z,36.03
2017-06-11T11:22:04.907Z,36.5
2017-06-11T11:24:13.318Z,36.24
2017-06-11T11:26:38.836Z,36.24
2017-06-11T11:29:04.354Z,35.66
2017-06-11T11:31:29.863Z,35.68
2017-06-11T11:33:55.384Z,36.31
2017-06-11T11:36:20.799Z,35.42
2017-06-11T11:38:46.312Z,35.42
2017-06-11T11:41:03.327Z,35.52
2017-06-11T11:43:28.741Z,35.44
2017-06-11T11:45:30.947Z,35.76
2017-06-11T11:47:47.924Z,36.18
2017-06-11T11:50:13.338Z,36.03
2017-06-11T11:52:30.197Z,35.82
2017-06-11T11:54:55.562Z,35.75
2017-06-11T11:57:20.977Z,35.27
2017-06-11T11:59:46.389Z,34.69
2017-06-11T12:01:48.587Z,34.98
2017-06-11T12:04:05.471Z,35.08
2017-06-11T12:06:30.885Z,35.04
2017-06-11T12:08:47.799Z,35.57
2017-06-11T12:11:13.209Z,35.81
2017-06-11T12:13:30.121Z,35.56
2017-06-11T12:15:38.431Z,35.38
2017-06-11T12:17:48.754Z,35.52
2017-06-11T12:20:14.208Z,35.35
2017-06-11T12:22:31.042Z,35.18
2017-06-11T12:24:47.939Z,35.35
2017-06-11T12:27:13.345Z,34.94
2017-06-11T12:29:38.760Z,34.62
2017-06-11T12:32:04.177Z,35.2
2017-06-11T12:34:14.873Z,34.6
2017-06-11T12:36:31.805Z,35.26
2017-06-11T12:38:57.169Z,35.04
2017-06-11T12:41:15.002Z,35.54
2017-06-11T12:43:40.415Z,35.39
2017-06-11T12:45:57.329Z,35.74
2017-06-11T12:47:59.530Z,35.59
2017-06-11T12:50:25.938Z,35.27
2017-06-11T12:52:51.340Z,35.23
2017-06-11T12:55:16.658Z,34.76
2017-06-11T12:57:33.480Z,35.47
2017-06-11T12:59:58.782Z,35.2
2017-06-11T13:02:15.591Z,35.54
2017-06-11T13:04:40.902Z,35.9
2017-06-11T13:06:57.714Z,35.63
2017-06-11T13:08:51.001Z,35.38
2017-06-11T13:10:44.141Z,35.5
2017-06-11T13:13:09.548Z,35.93
2017-06-11T13:15:34.957Z,35.3
2017-06-11T13:18:00.272Z,35.35
2017-06-11T13:20:25.574Z,35.45
2017-06-11T13:22:50.887Z,35.52
2017-06-11T13:25:16.305Z,35.41
2017-06-11T13:27:41.714Z,35.26
2017-06-11T13:30:07.130Z,35.59
2017-06-11T13:32:24.044Z,35.47
2017-06-11T13:34:49.356Z,35.66
2017-06-11T13:37:14.665Z,35.71
2017-06-11T13:39:40.079Z,35.63
2017-06-11T13:42:05.383Z,35.44
2017-06-11T13:44:30.699Z,35.32
2017-06-11T13:46:56.006Z,35.59
2017-06-11T13:49:21.424Z,35.6
2017-06-11T13:51:46.735Z,35.78
2017-06-11T13:54:12.147Z,35.63
2017-06-11T13:56:37.559Z,35.38
2017-06-11T13:59:02.971Z,35.81
2017-06-11T14:01:28.386Z,35.64
2017-06-11T14:03:53.801Z,35.97
2017-06-11T14:06:10.710Z,35.74
2017-06-11T14:08:36.126Z,35.69
2017-06-11T14:11:01.535Z,35.87
2017-06-11T14:13:12.258Z,35.54
2017-06-11T14:15:13.931Z,35.75
2017-06-11T14:17:39.378Z,35.3
2017-06-11T14:20:04.794Z,35.34
2017-06-11T14:22:30.204Z,35.93
2017-06-11T14:24:47.028Z,35.88
2017-06-11T14:27:12.426Z,35.56
2017-06-11T14:29:37.842Z,35.45
2017-06-11T14:31:54.653Z,35.66
2017-06-11T14:34:20.062Z,35.41
2017-06-11T14:36:45.374Z,35.74
2017-06-11T14:39:10.690Z,35.19
2017-06-11T14:41:27.603Z,35.64
2017-06-11T14:43:53.015Z,35.84
2017-06-11T14:46:18.322Z,35.94
2017-06-11T14:48:43.740Z,35.79
2017-06-11T14:51:09.149Z,35.98
2017-06-11T14:53:34.565Z,36.03
2017-06-11T14:55:59.875Z,35.88
2017-06-11T14:58:16.686Z,35.39
2017-06-11T15:00:33.511Z,35.34
2017-06-11T15:02:58.809Z,35.07
2017-06-11T15:05:15.632Z,34.7
2017-06-11T15:07:40.931Z,35.04
2017-06-11T15:10:06.240Z,34.94
2017-06-11T15:12:22.953Z,35.08
2017-06-11T15:14:48.169Z,35.13
2017-06-11T15:17:13.472Z,35.34
2017-06-11T15:19:15.645Z,35.26
2017-06-11T15:21:41.057Z,35.39
2017-06-11T15:23:43.255Z,35.19
2017-06-11T15:26:08.634Z,35.38
2017-06-11T15:28:33.944Z,35.19
2017-06-11T15:30:59.259Z,35.57
2017-06-11T15:32:35.660Z,35.76
2017-06-11T15:34:44.033Z,35.93
2017-06-11T15:37:09.342Z,36.11
2017-06-11T15:39:26.154Z,35.87
2017-06-11T15:41:51.468Z,35.6
2017-06-11T15:44:02.267Z,35.71
2017-06-11T15:46:27.654Z,35.76
2017-06-11T15:48:53.059Z,35.5
2017-06-11T15:51:18.476Z,35.81
2017-06-11T15:53:36.925Z,36
2017-06-11T15:56:01.718Z,36.01
2017-06-11T15:58:27.135Z,36.09
2017-06-11T16:00:43.945Z,36.14
2017-06-11T16:03:09.361Z,36.14
2017-06-11T16:05:34.772Z,36.33
2017-06-11T16:07:36.982Z,36.08
2017-06-11T16:09:51.779Z,35.88
2017-06-11T16:12:18.138Z,35.37
2017-06-11T16:14:43.552Z,35.82
2017-06-11T16:17:08.968Z,35.82
2017-06-11T16:19:25.773Z,35.39
2017-06-11T16:21:52.114Z,35.64
2017-06-11T16:24:17.424Z,35.71
2017-06-11T16:26:34.236Z,35.54
2017-06-11T16:28:59.652Z,35.49
2017-06-11T16:31:24.960Z,35.39
2017-06-11T16:33:50.283Z,35.53
2017-06-11T16:36:15.582Z,35.42
2017-06-11T16:38:40.889Z,35.52
2017-06-11T16:41:06.203Z,35.68
2017-06-11T16:43:14.517Z,35.42
2017-06-11T16:45:39.832Z,35.52
2017-06-11T16:48:05.139Z,35.53
2017-06-11T16:50:30.449Z,35.41
2017-06-11T16:52:55.753Z,35.44
2017-06-11T16:55:21.067Z,35.66
2017-06-11T16:57:46.371Z,35.71
2017-06-11T17:00:11.689Z,35.66
2017-06-11T17:02:36.997Z,35.38
2017-06-11T17:05:02.314Z,35.44
2017-06-11T17:07:13.094Z,34.91
2017-06-11T17:09:14.834Z,34.6
2017-06-11T17:11:40.150Z,34.58
2017-06-11T17:14:05.460Z,34.47
2017-06-11T17:16:22.277Z,34.24
2017-06-11T17:18:47.479Z,34.22
2017-06-11T17:21:12.695Z,34.53
2017-06-11T17:23:37.998Z,34.41
2017-06-11T17:26:03.207Z,34.26
2017-06-11T17:28:28.417Z,34.06
2017-06-11T17:30:53.626Z,34.06
2017-06-11T17:33:10.334Z,33.94
2017-06-11T17:35:27.047Z,34.11
2017-06-11T17:37:52.252Z,34.33
2017-06-11T17:40:17.462Z,34.09
2017-06-11T17:42:42.670Z,33.95
2017-06-11T17:45:07.888Z,33.51
2017-06-11T17:47:33.087Z,33.65
2017-06-11T17:49:58.293Z,33.73
2017-06-11T17:52:23.499Z,33.31
2017-06-11T17:54:40.213Z,33.12
2017-06-11T17:56:41.967Z,33.26
2017-06-11T17:59:07.180Z,33.31
2017-06-11T18:01:32.385Z,33.38
2017-06-11T18:03:57.491Z,33.54
2017-06-11T18:06:22.596Z,33.19
2017-06-11T18:08:24.893Z,33.08
2017-06-11T18:10:50.079Z,32.73
2017-06-11T18:13:15.186Z,32.75
2017-06-11T18:15:40.290Z,32.71
2017-06-11T18:18:05.505Z,32.76
2017-06-11T18:20:30.705Z,32.61
2017-06-11T18:22:55.810Z,32.53
2017-06-11T18:25:20.916Z,32.6
2017-06-11T18:27:31.157Z,32.61
2017-06-11T18:29:24.743Z,32.6
2017-06-11T18:31:49.848Z,32.6
2017-06-11T18:34:06.455Z,32.59
2017-06-11T18:36:31.458Z,32.49
2017-06-11T18:38:47.962Z,32.46
2017-06-11T18:41:12.962Z,32.49
2017-06-11T18:43:37.900Z,32.37
2017-06-11T18:46:02.960Z,32.31
2017-06-11T18:48:27.976Z,32.22
2017-06-11T18:50:44.582Z,32.09
2017-06-11T18:53:09.690Z,32.01
2017-06-11T18:55:34.796Z,31.89
2017-06-11T18:57:51.295Z,31.7
2017-06-11T19:00:16.303Z,31.48
2017-06-11T19:02:41.312Z,31.48
2017-06-11T19:04:57.810Z,31.47
2017-06-11T19:07:22.812Z,31.3
2017-06-11T19:09:47.817Z,31.3
2017-06-11T19:12:12.716Z,31.3
2017-06-11T19:14:37.719Z,31
2017-06-11T19:17:02.626Z,30.96
2017-06-11T19:19:27.526Z,31.15
2017-06-11T19:21:52.426Z,31.11
2017-06-11T19:24:08.933Z,31.05
2017-06-11T19:26:25.332Z,31.14
2017-06-11T19:28:50.189Z,31.05
2017-06-11T19:31:15.141Z,30.96
2017-06-11T19:33:40.032Z,30.98
2017-06-11T19:35:56.434Z,30.86
2017-06-11T19:38:21.335Z,31.02
2017-06-11T19:40:46.240Z,30.81
2017-06-11T19:43:11.095Z,30.98
2017-06-11T19:45:27.540Z,30.89
2017-06-11T19:47:43.939Z,30.89
2017-06-11T19:50:08.849Z,30.77
2017-06-11T19:52:33.746Z,30.88
2017-06-11T19:54:50.249Z,30.8
2017-06-11T19:57:15.153Z,30.7
2017-06-11T19:59:40.043Z,30.74
2017-06-11T20:02:04.924Z,30.43
2017-06-11T20:04:21.252Z,30.26
2017-06-11T20:06:46.158Z,30.39
2017-06-11T20:09:11.058Z,30.43
2017-06-11T20:11:35.852Z,30.26
2017-06-11T20:13:52.256Z,30.18
2017-06-11T20:16:17.056Z,30.11
2017-06-11T20:18:33.463Z,30.1
2017-06-11T20:20:49.867Z,30.01
2017-06-11T20:23:00.046Z,29.99
2017-06-11T20:25:24.922Z,30.01
2017-06-11T20:27:41.318Z,30.06
2017-06-11T20:30:06.112Z,30.01
2017-06-11T20:32:30.913Z,29.86
2017-06-11T20:34:47.214Z,29.47
2017-06-11T20:37:12.013Z,29.27
2017-06-11T20:39:28.309Z,29.18
2017-06-11T20:41:53.007Z,29.22
2017-06-11T20:44:09.305Z,29.21
2017-06-11T20:46:20.004Z,29.21
2017-06-11T20:48:44.873Z,29.06
2017-06-11T20:51:09.672Z,29.07
2017-06-11T20:53:34.408Z,29.03
2017-06-11T20:55:59.170Z,29.07
2017-06-11T20:58:23.970Z,29.18
2017-06-11T21:00:48.769Z,29.2
2017-06-11T21:03:13.567Z,29.1
2017-06-11T21:05:38.264Z,28.93
2017-06-11T21:08:03.060Z,28.97
2017-06-11T21:10:27.861Z,28.93
2017-06-11T21:12:44.163Z,28.9
2017-06-11T21:15:08.959Z,28.45
2017-06-11T21:17:33.651Z,28.46
2017-06-11T21:19:58.357Z,28.4
2017-06-11T21:22:23.050Z,28.38
2017-06-11T21:24:47.848Z,28.25
2017-06-11T21:27:12.543Z,28.3
2017-06-11T21:29:28.735Z,28.1
2017-06-11T21:31:53.438Z,28.33
2017-06-11T21:34:18.133Z,28.18
2017-06-11T21:36:42.829Z,28.23
2017-06-11T21:39:07.529Z,28.28
2017-06-11T21:41:32.221Z,28.27
2017-06-11T21:43:56.918Z,28.1
2017-06-11T21:46:13.116Z,28.16
2017-06-11T21:48:37.815Z,28.01
2017-06-11T21:51:02.407Z,28.1
2017-06-11T21:53:27.100Z,28
2017-06-11T21:55:51.797Z,27.91
2017-06-11T21:58:16.399Z,28.16
2017-06-11T22:00:41.093Z,28.09
2017-06-11T22:03:05.791Z,28.16
2017-06-11T22:05:30.472Z,28.16
2017-06-11T22:07:46.677Z,28.12
2017-06-11T22:10:11.268Z,27.95
2017-06-11T22:12:35.965Z,28.04
2017-06-11T22:15:00.669Z,28.03
2017-06-11T22:17:25.364Z,27.88
2017-06-11T22:19:41.666Z,27.94
2017-06-11T22:22:06.358Z,27.86
2017-06-11T22:24:31.057Z,27.85
2017-06-11T22:26:55.748Z,27.97
2017-06-11T22:29:20.449Z,27.9
2017-06-11T22:31:28.246Z,27.93
2017-06-11T22:33:52.947Z,27.9
2017-06-11T22:36:17.641Z,27.83
2017-06-11T22:38:42.234Z,27.91
2017-06-11T22:41:06.935Z,27.86
2017-06-11T22:43:23.128Z,27.97
2017-06-11T22:45:47.848Z,27.83
2017-06-11T22:47:55.524Z,27.97
2017-06-11T22:50:20.217Z,27.91
2017-06-11T22:52:30.295Z,27.91
2017-06-11T22:54:54.969Z,27.79
2017-06-11T22:57:19.667Z,27.86
2017-06-11T22:59:35.863Z,27.79
2017-06-11T23:02:00.455Z,27.57
2017-06-11T23:04:16.652Z,27.63
2017-06-11T23:06:41.348Z,27.52
2017-06-11T23:09:06.046Z,27.5
2017-06-11T23:11:30.742Z,27.25
2017-06-11T23:13:55.339Z,27.43
2017-06-11T23:16:20.035Z,27.3
2017-06-11T23:18:44.725Z,27.2
2017-06-11T23:21:09.321Z,27.28
2017-06-11T23:23:25.521Z,27.15
2017-06-11T23:25:50.108Z,27.23
2017-06-11T23:28:06.307Z,27.22
2017-06-11T23:30:30.905Z,27.07
2017-06-11T23:32:46.999Z,27.08
2017-06-11T23:35:11.594Z,27
2017-06-11T23:37:36.185Z,26.86
2017-06-11T23:40:00.779Z,26.85
2017-06-11T23:42:25.373Z,27.01
2017-06-11T23:44:49.863Z,26.91
2017-06-11T23:47:14.462Z,26.81
2017-06-11T23:49:39.054Z,26.89
2017-06-11T23:52:03.656Z,26.86
2017-06-11T23:54:28.140Z,26.82
2017-06-11T23:56:44.231Z,26.74
2017-06-11T23:59:08.830Z,26.74
